createdAt,value
2019-02-15T00:00:42.964Z,66.70
2019-02-15T00:01:49.863Z,68.67
2019-02-15T00:02:54.988Z,69.58
2019-02-15T00:03:59.812Z,70.22
2019-02-15T00:05:04.853Z,74.30
2019-02-15T00:06:09.792Z,76.20
2019-02-15T00:07:14.552Z,69.53
2019-02-15T00:08:19.623Z,66.90
2019-02-15T00:09:24.513Z,64.03
2019-02-15T00:10:29.285Z,68.25
2019-02-15T00:11:34.176Z,66.80
2019-02-15T00:12:39.100Z,65.50
2019-02-15T00:13:43.898Z,69.42
2019-02-15T00:14:49.727Z,65.00
2019-02-15T00:15:54.621Z,67.27
2019-02-15T00:17:00.382Z,69.47
2019-02-15T00:18:23.521Z,67.95
2019-02-15T00:19:33.777Z,68.72
2019-02-15T00:20:47.015Z,66.33
2019-02-15T00:21:53.506Z,70.32
2019-02-15T00:22:58.282Z,66.85
2019-02-15T00:24:03.119Z,62.50
2019-02-15T00:25:08.132Z,63.50
2019-02-15T00:26:12.995Z,67.70
2019-02-15T00:27:17.952Z,69.90
2019-02-15T00:28:22.793Z,67.35
2019-02-15T00:29:27.621Z,59.42
2019-02-15T00:30:32.670Z,60.35
2019-02-15T00:31:37.560Z,60.78
2019-02-15T00:32:42.313Z,65.57
2019-02-15T00:33:47.198Z,71.65
2019-02-15T00:34:52.027Z,70.62
2019-02-15T00:35:56.836Z,68.00
2019-02-15T00:37:02.020Z,67.95
2019-02-15T00:38:06.899Z,67.12
2019-02-15T00:39:12.916Z,70.05
2019-02-15T00:40:17.843Z,70.50
2019-02-15T00:41:22.748Z,68.47
2019-02-15T00:42:28.240Z,68.90
2019-02-15T00:43:33.117Z,69.05
2019-02-15T00:44:37.959Z,68.25
2019-02-15T00:46:16.964Z,70.22
2019-02-15T00:47:33.278Z,67.37
2019-02-15T00:48:38.160Z,65.72
2019-02-15T00:49:48.008Z,69.40
2019-02-15T00:51:08.567Z,73.92
2019-02-15T00:52:38.349Z,73.62
2019-02-15T00:53:59.034Z,68.50
2019-02-15T00:55:24.614Z,64.37
2019-02-15T00:56:37.456Z,66.97
2019-02-15T00:57:55.937Z,70.35
2019-02-15T00:59:18.395Z,70.62
2019-02-15T01:00:42.190Z,65.97
2019-02-15T01:02:04.121Z,68.67
2019-02-15T01:03:36.840Z,72.62
2019-02-15T01:05:06.568Z,70.87
2019-02-15T01:06:32.983Z,68.97
2019-02-15T01:07:59.272Z,70.97
2019-02-15T01:09:29.081Z,68.40
2019-02-15T01:11:04.453Z,72.75
2019-02-15T01:12:12.908Z,67.12
2019-02-15T01:13:20.765Z,77.30
2019-02-15T01:14:25.601Z,72.58
2019-02-15T01:15:30.463Z,75.05
2019-02-15T01:16:35.212Z,71.72
2019-02-15T01:17:40.100Z,71.97
2019-02-15T01:18:45.026Z,80.80
2019-02-15T01:19:49.832Z,78.28
2019-02-15T01:20:54.676Z,74.90
2019-02-15T01:21:59.727Z,77.37
2019-02-15T01:23:04.469Z,79.12
2019-02-15T01:24:09.348Z,71.67
2019-02-15T01:25:14.396Z,69.35
2019-02-15T01:26:41.897Z,67.82
2019-02-15T01:28:03.128Z,59.18
2019-02-15T01:29:28.198Z,49.63
2019-02-15T01:30:51.942Z,52.53
2019-02-15T01:32:21.692Z,61.73
2019-02-15T01:33:37.370Z,57.93
2019-02-15T01:35:16.675Z,59.40
2019-02-15T01:36:32.904Z,56.55
2019-02-15T01:38:15.028Z,58.98
2019-02-15T01:39:44.696Z,59.55
2019-02-15T01:41:08.464Z,59.05
2019-02-15T01:42:41.151Z,64.00
2019-02-15T01:43:52.932Z,60.10
2019-02-15T01:45:19.533Z,62.03
2019-02-15T01:46:39.364Z,61.68
2019-02-15T01:47:46.977Z,62.50
2019-02-15T01:48:51.776Z,56.77
2019-02-15T01:49:56.725Z,54.83
2019-02-15T01:51:01.543Z,57.30
2019-02-15T01:52:06.421Z,62.80
2019-02-15T01:53:11.310Z,62.78
2019-02-15T01:54:16.099Z,63.28
2019-02-15T01:55:20.967Z,58.85
2019-02-15T01:56:25.949Z,61.18
2019-02-15T01:57:31.034Z,68.65
2019-02-15T01:58:35.896Z,63.42
2019-02-15T01:59:40.756Z,53.58
2019-02-15T02:00:45.757Z,58.87
2019-02-15T02:01:50.688Z,60.88
2019-02-15T02:02:55.583Z,60.08
2019-02-15T02:04:00.364Z,58.85
2019-02-15T02:05:05.480Z,56.70
2019-02-15T02:06:10.464Z,55.70
2019-02-15T02:07:15.216Z,62.40
2019-02-15T02:08:23.114Z,59.95
2019-02-15T02:09:28.220Z,60.58
2019-02-15T02:10:33.190Z,69.30
2019-02-15T02:11:38.096Z,62.90
2019-02-15T02:12:42.892Z,59.73
2019-02-15T02:13:49.957Z,68.50
2019-02-15T02:14:54.396Z,64.97
2019-02-15T02:15:59.156Z,65.42
2019-02-15T02:17:04.051Z,65.47
2019-02-15T02:18:08.945Z,68.37
2019-02-15T02:19:13.720Z,69.42
2019-02-15T02:20:18.581Z,66.87
2019-02-15T02:21:23.492Z,65.92
2019-02-15T02:22:28.276Z,70.47
2019-02-15T02:23:33.168Z,63.80
2019-02-15T02:24:38.152Z,61.85
2019-02-15T02:25:42.896Z,60.88
2019-02-15T02:26:47.841Z,65.92
2019-02-15T02:27:52.714Z,64.85
2019-02-15T02:28:57.448Z,70.47
2019-02-15T02:30:02.342Z,62.98
2019-02-15T02:31:07.317Z,64.42
2019-02-15T02:32:12.092Z,72.32
2019-02-15T02:33:16.970Z,64.82
2019-02-15T02:34:21.794Z,67.80
2019-02-15T02:35:26.583Z,65.32
2019-02-15T02:36:51.317Z,65.95
2019-02-15T02:37:56.069Z,59.08
2019-02-15T02:39:00.940Z,67.12
2019-02-15T02:40:06.544Z,64.32
2019-02-15T02:41:11.319Z,69.25
2019-02-15T02:42:16.309Z,71.50
2019-02-15T02:43:21.164Z,61.23
2019-02-15T02:44:25.895Z,63.28
2019-02-15T02:45:30.767Z,68.60
2019-02-15T02:46:35.701Z,65.05
2019-02-15T02:47:40.504Z,67.35
2019-02-15T02:48:45.385Z,67.80
2019-02-15T02:49:50.288Z,58.30
2019-02-15T02:50:55.028Z,58.23
2019-02-15T02:51:59.881Z,63.87
2019-02-15T02:53:05.808Z,65.72
2019-02-15T02:54:10.708Z,57.55
2019-02-15T02:55:15.449Z,71.20
2019-02-15T02:56:20.380Z,70.00
2019-02-15T02:57:25.221Z,63.55
2019-02-15T02:58:30.269Z,61.73
2019-02-15T02:59:35.248Z,65.12
2019-02-15T03:00:40.044Z,57.23
2019-02-15T03:01:44.921Z,62.98
2019-02-15T03:02:49.776Z,60.80
2019-02-15T03:03:54.543Z,63.63
2019-02-15T03:04:59.433Z,53.15
2019-02-15T03:06:04.328Z,54.60
2019-02-15T03:07:09.053Z,56.98
2019-02-15T03:08:13.940Z,64.67
2019-02-15T03:09:18.708Z,56.90
2019-02-15T03:10:23.481Z,60.88
2019-02-15T03:11:28.487Z,68.83
2019-02-15T03:12:33.480Z,68.02
2019-02-15T03:13:38.360Z,61.23
2019-02-15T03:14:43.354Z,63.05
2019-02-15T03:15:48.186Z,68.10
2019-02-15T03:16:55.844Z,64.20
2019-02-15T03:18:00.748Z,59.13
2019-02-15T03:19:05.507Z,61.33
2019-02-15T03:20:10.592Z,60.65
2019-02-15T03:21:15.481Z,54.63
2019-02-15T03:22:20.261Z,57.93
2019-02-15T03:23:25.150Z,61.63
2019-02-15T03:24:30.042Z,60.70
2019-02-15T03:25:34.818Z,61.08
2019-02-15T03:26:39.761Z,60.17
2019-02-15T03:27:44.777Z,60.80
2019-02-15T03:28:49.556Z,61.65
2019-02-15T03:29:54.430Z,64.85
2019-02-15T03:30:59.400Z,63.83
2019-02-15T03:32:04.185Z,61.28
2019-02-15T03:33:09.085Z,60.03
2019-02-15T03:34:13.814Z,56.77
2019-02-15T03:35:18.573Z,60.95
2019-02-15T03:36:41.284Z,67.03
2019-02-15T03:38:03.188Z,59.35
2019-02-15T03:39:20.056Z,53.42
2019-02-15T03:40:43.120Z,56.08
2019-02-15T03:41:47.865Z,66.97
2019-02-15T03:42:52.824Z,63.25
2019-02-15T03:43:57.827Z,67.78
2019-02-15T03:45:02.582Z,60.65
2019-02-15T03:46:07.473Z,59.30
2019-02-15T03:47:13.870Z,58.55
2019-02-15T03:48:18.658Z,61.50
2019-02-15T03:49:23.531Z,64.42
2019-02-15T03:50:28.449Z,63.17
2019-02-15T03:51:33.192Z,55.43
2019-02-15T03:52:38.128Z,60.25
2019-02-15T03:53:42.873Z,70.05
2019-02-15T03:54:47.605Z,61.25
2019-02-15T03:55:52.670Z,70.47
2019-02-15T03:56:57.655Z,66.65
2019-02-15T03:58:02.449Z,71.00
2019-02-15T03:59:07.190Z,63.80
2019-02-15T04:00:13.269Z,67.42
2019-02-15T04:01:18.222Z,70.37
2019-02-15T04:02:23.094Z,69.95
2019-02-15T04:03:27.878Z,66.30
2019-02-15T04:04:32.774Z,69.85
2019-02-15T04:05:37.579Z,68.42
2019-02-15T04:06:42.375Z,61.95
2019-02-15T04:07:47.444Z,66.42
2019-02-15T04:08:52.375Z,70.67
2019-02-15T04:09:57.104Z,68.33
2019-02-15T04:11:02.021Z,63.05
2019-02-15T04:12:07.104Z,67.87
2019-02-15T04:13:12.044Z,69.87
2019-02-15T04:14:17.081Z,71.82
2019-02-15T04:15:22.112Z,74.22
2019-02-15T04:16:26.873Z,66.85
2019-02-15T04:17:31.741Z,65.75
2019-02-15T04:18:36.690Z,63.33
2019-02-15T04:19:41.458Z,65.65
2019-02-15T04:20:46.396Z,63.78
2019-02-15T04:21:51.304Z,64.80
2019-02-15T04:22:56.049Z,72.87
2019-02-15T04:24:01.026Z,67.80
2019-02-15T04:25:06.018Z,67.15
2019-02-15T04:26:10.797Z,63.55
2019-02-15T04:27:16.256Z,70.28
2019-02-15T04:28:21.113Z,73.07
2019-02-15T04:29:25.899Z,66.87
2019-02-15T04:30:30.777Z,63.40
2019-02-15T04:31:35.681Z,62.30
2019-02-15T04:32:40.477Z,67.58
2019-02-15T04:33:45.343Z,69.17
2019-02-15T04:34:50.365Z,65.57
2019-02-15T04:35:55.087Z,67.82
2019-02-15T04:36:59.970Z,68.45
2019-02-15T04:38:04.959Z,66.07
2019-02-15T04:39:09.761Z,64.70
2019-02-15T04:40:14.785Z,62.88
2019-02-15T04:41:19.720Z,75.47
2019-02-15T04:42:24.517Z,68.42
2019-02-15T04:43:29.398Z,62.65
2019-02-15T04:44:42.576Z,64.97
2019-02-15T04:45:40.879Z,65.75
2019-02-15T04:46:45.718Z,76.50
2019-02-15T04:47:50.544Z,62.73
2019-02-15T04:48:55.296Z,70.45
2019-02-15T04:50:00.353Z,76.30
2019-02-15T04:51:05.181Z,92.15
2019-02-15T04:52:10.046Z,72.85
2019-02-15T04:53:14.925Z,96.87
2019-02-15T04:54:19.676Z,69.65
2019-02-15T04:55:24.484Z,66.45
2019-02-15T04:56:29.422Z,75.70
2019-02-15T04:57:34.312Z,65.08
2019-02-15T04:58:39.084Z,64.00
2019-02-15T04:59:43.924Z,70.80
2019-02-15T05:00:49.043Z,63.87
2019-02-15T05:01:53.827Z,70.85
2019-02-15T05:02:58.789Z,63.33
2019-02-15T05:04:03.642Z,72.10
2019-02-15T05:05:08.440Z,69.75
2019-02-15T05:06:13.352Z,67.87
2019-02-15T05:07:18.267Z,62.70
2019-02-15T05:08:22.999Z,70.95
2019-02-15T05:09:27.960Z,65.92
2019-02-15T05:10:33.076Z,75.62
2019-02-15T05:11:37.906Z,69.40
2019-02-15T05:12:42.957Z,69.20
2019-02-15T05:13:47.929Z,66.62
2019-02-15T05:14:53.520Z,71.12
2019-02-15T05:15:58.516Z,67.65
2019-02-15T05:17:03.466Z,73.07
2019-02-15T05:18:08.256Z,73.78
2019-02-15T05:19:13.317Z,70.10
2019-02-15T05:20:18.259Z,69.42
2019-02-15T05:21:23.056Z,70.47
2019-02-15T05:22:28.026Z,72.40
2019-02-15T05:23:32.888Z,73.15
2019-02-15T05:24:40.595Z,70.50
2019-02-15T05:25:45.473Z,64.45
2019-02-15T05:26:50.270Z,66.80
2019-02-15T05:27:55.241Z,71.67
2019-02-15T05:29:00.330Z,69.07
2019-02-15T05:30:05.268Z,64.85
2019-02-15T05:31:10.212Z,63.75
2019-02-15T05:32:15.203Z,63.80
2019-02-15T05:33:19.997Z,71.00
2019-02-15T05:34:24.824Z,71.60
2019-02-15T05:35:29.694Z,65.85
2019-02-15T05:36:34.480Z,68.55
2019-02-15T05:37:39.500Z,65.25
2019-02-15T05:38:44.562Z,71.22
2019-02-15T05:39:49.357Z,63.17
2019-02-15T05:40:54.230Z,66.53
2019-02-15T05:41:59.085Z,62.10
2019-02-15T05:43:03.892Z,65.52
2019-02-15T05:44:08.724Z,66.72
2019-02-15T05:45:13.844Z,68.12
2019-02-15T05:46:18.748Z,62.30
2019-02-15T05:47:23.756Z,64.50
2019-02-15T05:48:28.808Z,65.03
2019-02-15T05:49:33.733Z,68.47
2019-02-15T05:50:38.757Z,61.88
2019-02-15T05:51:43.689Z,64.50
2019-02-15T05:52:48.506Z,63.15
2019-02-15T05:53:53.525Z,62.67
2019-02-15T05:54:59.541Z,68.75
2019-02-15T05:56:04.811Z,69.20
2019-02-15T05:57:10.025Z,71.92
2019-02-15T05:58:14.997Z,62.80
2019-02-15T05:59:19.951Z,61.85
2019-02-15T06:00:24.849Z,66.60
2019-02-15T06:01:29.897Z,66.30
2019-02-15T06:02:34.948Z,70.20
2019-02-15T06:03:39.827Z,73.85
2019-02-15T06:04:44.582Z,61.13
2019-02-15T06:05:49.545Z,64.92
2019-02-15T06:06:54.630Z,72.22
2019-02-15T06:07:59.619Z,65.10
2019-02-15T06:09:05.833Z,67.55
2019-02-15T06:10:11.118Z,67.10
2019-02-15T06:11:16.139Z,65.32
2019-02-15T06:12:21.124Z,70.65
2019-02-15T06:13:26.128Z,70.22
2019-02-15T06:14:31.052Z,73.92
2019-02-15T06:15:35.920Z,64.05
2019-02-15T06:16:40.845Z,69.07
2019-02-15T06:17:45.613Z,65.80
2019-02-15T06:18:50.488Z,71.30
2019-02-15T06:19:55.381Z,67.25
2019-02-15T06:21:00.141Z,70.35
2019-02-15T06:22:05.049Z,74.77
2019-02-15T06:23:09.983Z,73.30
2019-02-15T06:24:14.748Z,70.52
2019-02-15T06:25:19.853Z,69.20
2019-02-15T06:26:24.748Z,68.55
2019-02-15T06:27:29.645Z,81.80
2019-02-15T06:28:34.963Z,63.90
2019-02-15T06:29:40.021Z,72.10
2019-02-15T06:30:44.866Z,70.67
2019-02-15T06:31:49.752Z,69.45
2019-02-15T06:32:54.832Z,77.25
2019-02-15T06:33:59.589Z,73.55
2019-02-15T06:35:04.588Z,69.53
2019-02-15T06:36:09.456Z,68.25
2019-02-15T06:37:14.241Z,69.12
2019-02-15T06:38:19.204Z,62.40
2019-02-15T06:39:24.211Z,67.92
2019-02-15T06:40:29.006Z,67.20
2019-02-15T06:41:33.895Z,65.10
2019-02-15T06:42:38.791Z,63.02
2019-02-15T06:43:43.748Z,59.77
2019-02-15T06:44:48.732Z,65.08
2019-02-15T06:45:53.708Z,64.55
2019-02-15T06:46:58.633Z,63.35
2019-02-15T06:48:03.639Z,63.58
2019-02-15T06:49:08.637Z,65.25
2019-02-15T06:50:16.394Z,56.77
2019-02-15T06:51:21.437Z,59.00
2019-02-15T06:52:26.243Z,57.13
2019-02-15T06:53:31.370Z,63.45
2019-02-15T06:54:36.278Z,59.40
2019-02-15T06:55:41.368Z,69.10
2019-02-15T06:56:46.468Z,70.00
2019-02-15T06:57:51.612Z,56.23
2019-02-15T06:59:18.551Z,56.53
2019-02-15T07:01:00.488Z,62.48
2019-02-15T07:02:30.302Z,62.48
2019-02-15T07:03:43.273Z,56.55
2019-02-15T07:05:19.324Z,65.55
2019-02-15T07:06:24.086Z,58.60
2019-02-15T07:07:29.078Z,62.78
2019-02-15T07:08:34.066Z,65.90
2019-02-15T07:09:39.026Z,59.75
2019-02-15T07:10:43.909Z,63.25
2019-02-15T07:11:48.959Z,59.55
2019-02-15T07:12:53.753Z,116.37
2019-02-15T07:13:58.876Z,72.78
2019-02-15T07:15:03.737Z,66.70
2019-02-15T07:16:08.571Z,58.35
2019-02-15T07:17:13.568Z,57.00
2019-02-15T07:18:18.560Z,61.63
2019-02-15T07:19:23.444Z,53.35
2019-02-15T07:20:28.760Z,60.98
2019-02-15T07:21:34.004Z,61.77
2019-02-15T07:22:38.853Z,54.75
2019-02-15T07:23:43.985Z,57.85
2019-02-15T07:24:48.800Z,51.30
2019-02-15T07:25:53.746Z,59.63
2019-02-15T07:26:58.903Z,50.48
2019-02-15T07:28:03.901Z,49.88
2019-02-15T07:29:08.968Z,58.80
2019-02-15T07:30:15.524Z,52.75
2019-02-15T07:31:20.579Z,57.10
2019-02-15T07:32:25.616Z,55.63
2019-02-15T07:33:30.684Z,51.58
2019-02-15T07:34:35.527Z,55.75
2019-02-15T07:35:40.542Z,52.45
2019-02-15T07:36:47.646Z,51.70
2019-02-15T07:37:53.673Z,50.10
2019-02-15T07:38:58.853Z,51.37
2019-02-15T07:40:03.809Z,52.75
2019-02-15T07:41:08.898Z,53.95
2019-02-15T07:42:13.809Z,51.33
2019-02-15T07:43:18.748Z,49.90
2019-02-15T07:44:23.964Z,49.55
2019-02-15T07:45:28.993Z,49.98
2019-02-15T07:46:33.932Z,51.80
2019-02-15T07:47:39.118Z,49.30
2019-02-15T07:48:43.988Z,55.28
2019-02-15T07:53:20.488Z,51.45
2019-02-15T07:54:26.163Z,55.60
2019-02-15T07:55:31.587Z,51.77
2019-02-15T07:56:36.839Z,57.15
2019-02-15T07:57:41.812Z,52.98
2019-02-15T07:58:46.961Z,47.95
2019-02-15T07:59:52.029Z,45.83
2019-02-15T08:00:56.949Z,48.78
2019-02-15T08:02:02.335Z,48.75
2019-02-15T08:03:07.699Z,52.90
2019-02-15T08:04:12.629Z,46.42
2019-02-15T08:05:17.413Z,46.73
2019-02-15T08:06:22.187Z,48.85
2019-02-15T08:07:27.737Z,46.75
2019-02-15T08:08:33.386Z,45.52
2019-02-15T08:09:38.085Z,48.40
2019-02-15T08:10:42.809Z,47.95
2019-02-15T08:11:48.176Z,42.95
2019-02-15T08:12:53.496Z,46.20
2019-02-15T08:13:58.936Z,45.33
2019-02-15T08:15:04.736Z,43.87
2019-02-15T08:16:09.916Z,49.73
2019-02-15T08:17:14.615Z,52.45
2019-02-15T08:18:19.381Z,48.50
2019-02-15T08:19:24.364Z,60.05
2019-02-15T08:20:29.141Z,54.30
2019-02-15T08:21:33.889Z,52.17
2019-02-15T08:22:38.672Z,52.27
2019-02-15T08:23:43.425Z,45.12
2019-02-15T08:24:48.258Z,40.00
2019-02-15T08:25:53.083Z,47.80
2019-02-15T08:26:57.882Z,45.25
2019-02-15T08:28:02.682Z,44.38
2019-02-15T08:29:07.609Z,47.83
2019-02-15T08:30:12.651Z,48.52
2019-02-15T08:31:17.520Z,47.58
2019-02-15T08:32:22.371Z,50.33
2019-02-15T08:33:27.161Z,42.20
2019-02-15T08:34:31.939Z,41.83
2019-02-15T08:35:36.729Z,42.23
2019-02-15T08:36:41.528Z,48.63
2019-02-15T08:37:46.284Z,48.78
2019-02-15T08:38:51.223Z,42.88
2019-02-15T08:39:55.972Z,45.15
2019-02-15T08:41:08.804Z,40.98
2019-02-15T08:42:13.665Z,41.53
2019-02-15T08:43:18.416Z,45.55
2019-02-15T08:44:23.173Z,42.50
2019-02-15T08:45:27.983Z,42.27
2019-02-15T08:46:32.780Z,44.48
2019-02-15T08:47:37.524Z,41.33
2019-02-15T08:48:46.207Z,40.50
2019-02-15T08:49:48.852Z,43.02
2019-02-15T08:50:53.652Z,45.30
2019-02-15T08:51:58.448Z,42.75
2019-02-15T08:53:03.358Z,48.25
2019-02-15T08:54:08.215Z,47.95
2019-02-15T08:55:13.497Z,45.43
2019-02-15T08:56:18.328Z,39.58
2019-02-15T08:57:23.114Z,43.02
2019-02-15T08:58:27.983Z,42.88
2019-02-15T08:59:32.807Z,37.53
2019-02-15T09:00:37.624Z,44.75
2019-02-15T09:01:42.615Z,43.85
2019-02-15T09:02:47.397Z,43.68
2019-02-15T09:03:52.173Z,44.10
2019-02-15T09:04:56.987Z,45.88
2019-02-15T09:06:01.840Z,45.10
2019-02-15T09:07:06.645Z,41.13
2019-02-15T09:08:11.478Z,46.92
2019-02-15T09:09:16.255Z,47.03
2019-02-15T09:10:21.073Z,42.03
2019-02-15T09:11:25.887Z,42.93
2019-02-15T09:12:30.694Z,37.58
2019-02-15T09:13:35.426Z,41.60
2019-02-15T09:14:40.385Z,42.08
2019-02-15T09:15:45.230Z,37.28
2019-02-15T09:16:50.036Z,39.08
2019-02-15T09:17:54.857Z,41.45
2019-02-15T09:19:00.614Z,37.40
2019-02-15T09:20:06.097Z,40.00
2019-02-15T09:21:11.009Z,37.65
2019-02-15T09:22:15.793Z,43.55
2019-02-15T09:23:20.618Z,39.98
2019-02-15T09:24:25.451Z,44.20
2019-02-15T09:25:30.308Z,40.45
2019-02-15T09:26:35.151Z,40.52
2019-02-15T09:28:01.566Z,37.33
2019-02-15T09:29:09.297Z,39.03
2019-02-15T09:30:14.978Z,41.88
2019-02-15T09:31:19.751Z,42.73
2019-02-15T09:32:24.716Z,40.80
2019-02-15T09:33:30.031Z,41.90
2019-02-15T09:34:34.833Z,44.67
2019-02-15T09:35:39.856Z,40.35
2019-02-15T09:36:44.832Z,38.95
2019-02-15T09:37:49.752Z,43.50
2019-02-15T09:38:55.046Z,44.30
2019-02-15T09:39:59.871Z,38.98
2019-02-15T09:41:04.913Z,40.83
2019-02-15T09:42:09.707Z,44.83
2019-02-15T09:43:14.557Z,41.40
2019-02-15T09:44:19.344Z,43.00
2019-02-15T09:45:24.072Z,41.28
2019-02-15T09:46:28.965Z,37.55
2019-02-15T09:47:33.739Z,42.48
2019-02-15T09:48:38.793Z,37.98
2019-02-15T09:49:45.191Z,37.10
2019-02-15T09:50:50.317Z,43.20
2019-02-15T09:51:55.627Z,44.75
2019-02-15T09:53:00.576Z,43.78
2019-02-15T09:54:05.456Z,42.05
2019-02-15T09:55:10.415Z,42.43
2019-02-15T09:56:15.567Z,42.62
2019-02-15T09:57:20.281Z,42.23
2019-02-15T09:58:25.582Z,43.98
2019-02-15T09:59:30.446Z,41.20
2019-02-15T10:00:35.309Z,39.67
2019-02-15T10:01:40.086Z,45.58
2019-02-15T10:02:44.887Z,43.83
2019-02-15T10:03:49.807Z,42.95
2019-02-15T10:04:54.608Z,43.28
2019-02-15T10:05:59.517Z,40.98
2019-02-15T10:07:04.276Z,43.28
2019-02-15T10:08:09.111Z,44.45
2019-02-15T10:09:13.956Z,41.77
2019-02-15T10:10:18.778Z,42.08
2019-02-15T10:11:23.927Z,40.65
2019-02-15T10:12:28.667Z,38.20
2019-02-15T10:13:33.468Z,36.30
2019-02-15T10:14:38.188Z,38.25
2019-02-15T10:15:43.021Z,37.25
2019-02-15T10:16:48.051Z,39.15
2019-02-15T10:17:53.004Z,36.35
2019-02-15T10:18:57.818Z,36.83
2019-02-15T10:20:02.623Z,43.23
2019-02-15T10:21:07.501Z,35.10
2019-02-15T10:22:12.362Z,34.08
2019-02-15T10:23:17.258Z,35.03
2019-02-15T10:24:22.060Z,40.30
2019-02-15T10:25:27.004Z,36.40
2019-02-15T10:26:31.781Z,39.75
2019-02-15T10:27:37.916Z,38.10
2019-02-15T10:28:42.690Z,48.78
2019-02-15T10:29:47.461Z,48.25
2019-02-15T10:30:55.119Z,41.40
2019-02-15T10:32:00.297Z,46.45
2019-02-15T10:33:05.156Z,39.63
2019-02-15T10:34:10.100Z,33.90
2019-02-15T10:35:14.891Z,30.70
2019-02-15T10:36:19.978Z,55.92
2019-02-15T10:37:24.907Z,45.30
2019-02-15T10:38:29.746Z,33.65
2019-02-15T10:39:34.558Z,39.73
2019-02-15T10:40:39.445Z,39.03
2019-02-15T10:41:44.270Z,41.53
2019-02-15T10:42:49.012Z,54.05
2019-02-15T10:43:53.792Z,49.67
2019-02-15T10:44:58.549Z,59.55
2019-02-15T10:46:03.321Z,52.10
2019-02-15T10:47:13.934Z,34.45
2019-02-15T10:48:14.504Z,42.23
2019-02-15T10:49:20.715Z,36.77
2019-02-15T10:50:25.533Z,53.28
2019-02-15T10:51:32.172Z,36.28
2019-02-15T10:52:37.990Z,32.70
2019-02-15T10:53:42.732Z,32.35
2019-02-15T10:54:47.542Z,33.38
2019-02-15T10:55:52.266Z,39.73
2019-02-15T10:56:57.073Z,38.13
2019-02-15T10:58:01.883Z,39.38
2019-02-15T10:59:06.747Z,50.80
2019-02-15T11:00:16.930Z,47.62
2019-02-15T11:01:21.688Z,39.05
2019-02-15T11:02:26.495Z,37.85
2019-02-15T11:03:31.299Z,42.78
2019-02-15T11:04:36.113Z,38.48
2019-02-15T11:05:40.885Z,33.78
2019-02-15T11:06:45.719Z,35.15
2019-02-15T11:07:50.514Z,38.30
2019-02-15T11:08:55.318Z,37.53
2019-02-15T11:10:00.158Z,30.35
2019-02-15T11:11:05.001Z,33.48
2019-02-15T11:12:09.894Z,33.35
2019-02-15T11:13:14.629Z,32.00
2019-02-15T11:14:19.339Z,34.25
2019-02-15T11:15:24.092Z,32.20
2019-02-15T11:16:29.075Z,33.10
2019-02-15T11:17:33.828Z,34.43
2019-02-15T11:18:38.760Z,38.35
2019-02-15T11:19:43.505Z,34.18
2019-02-15T11:20:48.427Z,39.60
2019-02-15T11:21:53.269Z,50.35
2019-02-15T11:22:58.024Z,39.67
2019-02-15T11:24:02.858Z,33.88
2019-02-15T11:25:08.923Z,32.20
2019-02-15T11:26:13.672Z,29.20
2019-02-15T11:27:18.460Z,35.05
2019-02-15T11:28:23.197Z,32.48
2019-02-15T11:29:27.970Z,32.17
2019-02-15T11:30:32.728Z,26.97
2019-02-15T11:31:37.480Z,26.52
2019-02-15T11:32:42.472Z,23.73
2019-02-15T11:33:47.225Z,22.30
2019-02-15T11:34:51.981Z,23.10
2019-02-15T11:35:56.748Z,24.07
2019-02-15T11:37:01.921Z,23.85
2019-02-15T11:38:07.022Z,24.40
2019-02-15T11:39:12.147Z,27.95
2019-02-15T11:40:17.115Z,27.52
2019-02-15T11:41:22.040Z,31.93
2019-02-15T11:42:26.896Z,31.70
2019-02-15T11:43:31.694Z,34.25
2019-02-15T11:44:36.461Z,30.50
2019-02-15T11:45:41.262Z,27.15
2019-02-15T11:46:46.008Z,27.75
2019-02-15T11:47:50.789Z,24.72
2019-02-15T11:48:55.561Z,27.20
2019-02-15T11:50:00.375Z,26.82
2019-02-15T11:51:05.191Z,26.45
2019-02-15T11:52:10.114Z,28.55
2019-02-15T11:53:16.332Z,29.80
2019-02-15T11:54:23.665Z,29.72
2019-02-15T11:55:27.717Z,28.20
2019-02-15T11:56:32.482Z,28.75
2019-02-15T11:57:37.399Z,54.93
2019-02-15T11:58:42.148Z,52.33
2019-02-15T12:03:07.712Z,77.60
2019-02-15T12:04:12.835Z,39.60
2019-02-15T12:05:17.990Z,36.98
2019-02-15T12:06:23.019Z,37.63
2019-02-15T12:07:28.010Z,38.67
2019-02-15T12:08:32.957Z,27.60
2019-02-15T12:09:37.915Z,34.25
2019-02-15T12:10:43.047Z,31.77
2019-02-15T12:11:47.988Z,35.80
2019-02-15T12:12:53.101Z,31.52
2019-02-15T12:13:58.124Z,37.73
2019-02-15T12:15:03.099Z,38.50
2019-02-15T12:16:08.650Z,37.40
2019-02-15T12:17:16.359Z,38.02
2019-02-15T12:18:21.149Z,32.85
2019-02-15T12:19:26.564Z,34.67
2019-02-15T12:20:31.719Z,40.30
2019-02-15T12:21:36.966Z,63.78
2019-02-15T12:22:42.042Z,56.85
2019-02-15T12:23:47.040Z,45.33
2019-02-15T12:24:52.008Z,32.03
2019-02-15T12:25:57.164Z,39.15
2019-02-15T12:27:02.103Z,30.82
2019-02-15T12:28:07.108Z,33.85
2019-02-15T12:29:12.239Z,34.75
2019-02-15T12:30:17.437Z,28.75
2019-02-15T12:31:22.396Z,34.65
2019-02-15T12:32:27.563Z,34.33
2019-02-15T12:33:32.716Z,35.52
2019-02-15T12:34:37.677Z,32.75
2019-02-15T12:35:42.885Z,33.92
2019-02-15T12:36:48.186Z,34.67
2019-02-15T12:37:53.241Z,33.65
2019-02-15T12:38:58.536Z,29.90
2019-02-15T12:40:03.839Z,27.77
2019-02-15T12:41:08.966Z,28.60
2019-02-15T12:42:13.925Z,32.48
2019-02-15T12:43:19.089Z,33.45
2019-02-15T12:44:24.092Z,35.40
2019-02-15T12:45:29.235Z,35.78
2019-02-15T12:46:34.084Z,34.63
2019-02-15T12:47:38.999Z,34.40
2019-02-15T12:48:44.089Z,52.95
2019-02-15T12:49:49.308Z,33.65
2019-02-15T12:50:54.573Z,29.48
2019-02-15T12:51:59.601Z,29.57
2019-02-15T12:53:04.798Z,30.90
2019-02-15T12:54:10.167Z,31.15
2019-02-15T12:55:15.208Z,33.18
2019-02-15T12:56:20.315Z,34.88
2019-02-15T12:57:25.608Z,28.70
2019-02-15T12:58:31.356Z,30.55
2019-02-15T12:59:36.674Z,30.52
2019-02-15T13:00:41.708Z,28.47
2019-02-15T13:01:46.805Z,29.92
2019-02-15T13:02:51.888Z,26.48
2019-02-15T13:03:56.877Z,29.42
2019-02-15T13:05:02.003Z,29.35
2019-02-15T13:06:07.457Z,31.62
2019-02-15T13:07:12.557Z,33.20
2019-02-15T13:08:17.930Z,22.87
2019-02-15T13:09:22.879Z,34.53
2019-02-15T13:10:28.414Z,24.90
2019-02-15T13:11:33.277Z,26.93
2019-02-15T13:12:38.117Z,25.25
2019-02-15T13:13:43.097Z,26.35
2019-02-15T13:14:48.156Z,26.55
2019-02-15T13:15:53.044Z,25.77
2019-02-15T13:16:57.903Z,22.85
2019-02-15T13:18:02.780Z,24.92
2019-02-15T13:19:07.776Z,25.23
2019-02-15T13:20:12.792Z,21.95
2019-02-15T13:21:17.689Z,22.40
2019-02-15T13:22:22.624Z,28.77
2019-02-15T13:23:27.455Z,22.73
2019-02-15T13:24:32.218Z,27.15
2019-02-15T13:25:37.260Z,27.27
2019-02-15T13:26:42.275Z,30.50
2019-02-15T13:27:47.078Z,25.37
2019-02-15T13:28:52.050Z,28.15
2019-02-15T13:29:56.891Z,31.52
2019-02-15T13:31:01.670Z,25.97
2019-02-15T13:32:06.695Z,28.50
2019-02-15T13:33:11.495Z,33.35
2019-02-15T13:34:16.450Z,34.25
2019-02-15T13:35:21.434Z,32.75
2019-02-15T13:36:26.269Z,34.18
2019-02-15T13:37:31.170Z,31.65
2019-02-15T13:38:36.216Z,32.38
2019-02-15T13:39:41.134Z,33.83
2019-02-15T13:40:45.953Z,27.07
2019-02-15T13:41:50.733Z,31.93
2019-02-15T13:42:55.554Z,29.00
2019-02-15T13:44:01.973Z,23.15
2019-02-15T13:45:07.969Z,24.32
2019-02-15T13:46:12.969Z,23.98
2019-02-15T13:47:17.809Z,23.52
2019-02-15T13:48:22.589Z,24.63
2019-02-15T13:49:27.399Z,25.20
2019-02-15T13:50:32.248Z,22.15
2019-02-15T13:51:37.186Z,23.07
2019-02-15T13:52:42.248Z,22.05
2019-02-15T13:53:47.139Z,23.52
2019-02-15T13:54:51.976Z,25.60
2019-02-15T13:55:56.932Z,30.10
2019-02-15T13:57:01.947Z,27.35
2019-02-15T13:58:06.888Z,29.37
2019-02-15T13:59:11.926Z,28.20
2019-02-15T14:00:17.161Z,23.47
2019-02-15T14:01:22.048Z,29.23
2019-02-15T14:02:26.938Z,31.42
2019-02-15T14:03:33.792Z,29.52
2019-02-15T14:04:39.281Z,34.13
2019-02-15T14:05:45.080Z,30.88
2019-02-15T14:06:59.188Z,41.28
2019-02-15T14:08:04.168Z,31.77
2019-02-15T14:09:09.250Z,34.10
2019-02-15T14:10:14.169Z,36.28
2019-02-15T14:11:19.070Z,36.60
2019-02-15T14:12:23.937Z,33.95
2019-02-15T14:13:28.728Z,36.63
2019-02-15T14:14:33.862Z,36.55
2019-02-15T14:15:38.848Z,38.20
2019-02-15T14:16:43.730Z,36.53
2019-02-15T14:17:49.000Z,29.12
2019-02-15T14:18:54.038Z,27.70
2019-02-15T14:20:00.349Z,28.85